Time;durP1;ratioP1;P1;durP2;ratioP2;P2;SDS_P1;SDS_P2;PMS_P1;PMS_P2;Temp;Humidity;BMP_temperature;BMP_pressure;BME280_temperature;BME280_humidity;BME280_pressure;Samples;Min_cycle;Max_cycle;Signal;HPM_P1;HPM_P2
2021/11/01 00:00:00;;;;;;;18.77;13.07;;;;;;;7.29;96.65;99494.88;5003741;28;20205;-72
2021/11/01 00:02:26;;;;;;;22.27;14.50;;;;;;;7.39;96.70;99493.69;5007007;28;20239;-71
2021/11/01 00:04:53;;;;;;;19.13;13.93;;;;;;;7.43;96.76;99491.03;5005575;28;20255;-71
2021/11/01 00:07:21;;;;;;;19.70;14.43;;;;;;;7.45;96.92;99486.63;5006748;28;20215;-71
2021/11/01 00:09:47;;;;;;;23.07;14.43;;;;;;;7.51;97.06;99491.59;5002691;28;20217;-71
2021/11/01 00:12:14;;;;;;;21.67;13.73;;;;;;;7.48;97.01;99494.31;5007081;28;20239;-71
2021/11/01 00:14:41;;;;;;;20.37;14.10;;;;;;;7.45;97.07;99494.41;5005039;28;20259;-71
2021/11/01 00:17:07;;;;;;;22.27;15.03;;;;;;;7.41;96.99;99488.47;5010490;28;20211;-71
2021/11/01 00:19:34;;;;;;;21.70;14.87;;;;;;;7.38;97.03;99488.56;5005107;28;20201;-70
2021/11/01 00:22:00;;;;;;;22.33;13.30;;;;;;;7.34;97.56;99481.78;5003622;28;20228;-71
2021/11/01 00:24:28;;;;;;;20.30;14.57;;;;;;;7.34;97.70;99484.38;5007695;28;20208;-71
2021/11/01 00:26:54;;;;;;;21.43;14.20;;;;;;;7.36;98.27;99485.16;5006696;28;20209;-71
2021/11/01 00:29:21;;;;;;;20.57;14.00;;;;;;;7.30;98.34;99478.44;5002176;28;20217;-71
2021/11/01 00:31:47;;;;;;;19.97;14.27;;;;;;;7.25;97.79;99476.88;5004965;28;20232;-71
2021/11/01 00:34:14;;;;;;;19.13;14.00;;;;;;;7.22;98.27;99469.19;5002291;28;20199;-71
2021/11/01 00:36:40;;;;;;;22.17;15.03;;;;;;;7.28;98.99;99459.50;5003791;28;20578;-71
2021/11/01 00:39:07;;;;;;;20.53;13.70;;;;;;;7.26;98.46;99465.59;5005047;28;20228;-71
2021/11/01 00:41:35;;;;;;;22.80;14.27;;;;;;;7.31;99.46;99459.38;5010207;28;20235;-71
2021/11/01 00:44:02;;;;;;;23.40;14.83;;;;;;;7.31;99.00;99455.94;5004308;28;20229;-70
2021/11/01 00:46:28;;;;;;;21.37;14.67;;;;;;;7.31;99.49;99456.78;5005656;28;20688;-71
2021/11/01 00:48:55;;;;;;;20.27;14.60;;;;;;;7.28;99.34;99453.44;5002198;28;20216;-71
2021/11/01 00:51:21;;;;;;;21.63;14.47;;;;;;;7.29;99.65;99452.56;5005050;28;20748;-72
2021/11/01 00:53:49;;;;;;;19.47;14.37;;;;;;;7.26;99.65;99448.28;5005337;28;20205;-71
2021/11/01 00:56:15;;;;;;;22.63;15.13;;;;;;;7.26;99.87;99455.22;5004603;28;20201;-71
2021/11/01 00:58:44;;;;;;;20.43;14.20;;;;;;;7.24;99.67;99450.09;5010137;28;20212;-70
2021/11/01 01:01:11;;;;;;;22.47;15.00;;;;;;;7.17;99.75;99446.00;5005306;28;20218;-71
2021/11/01 01:03:37;;;;;;;22.33;13.90;;;;;;;7.12;100.00;99437.50;5007795;28;20780;-71
2021/11/01 01:06:04;;;;;;;22.10;15.10;;;;;;;7.13;100.00;99444.41;5004015;28;20304;-71
2021/11/01 01:08:31;;;;;;;22.13;14.83;;;;;;;7.14;100.00;99438.31;5015246;28;20205;-71
2021/11/01 01:10:57;;;;;;;22.83;15.37;;;;;;;7.20;100.00;99431.19;5005619;28;20250;-71
2021/11/01 01:13:27;;;;;;;22.43;15.83;;;;;;;7.20;100.00;99435.53;5005118;28;20591;-71
2021/11/01 01:16:03;;;;;;;21.43;15.33;;;;;;;7.18;100.00;99432.16;5003576;28;20228;-72
2021/11/01 01:18:34;;;;;;;22.07;15.57;;;;;;;7.16;100.00;99427.00;5002967;28;20677;-71
2021/11/01 01:21:12;;;;;;;21.43;14.13;;;;;;;7.09;100.00;99425.50;5014647;28;20658;-71
2021/11/01 01:23:38;;;;;;;20.40;15.07;;;;;;;7.08;100.00;99420.38;5005942;28;20902;-71
2021/11/01 01:26:05;;;;;;;25.17;15.53;;;;;;;7.04;100.00;99426.56;5006148;28;20545;-71
2021/11/01 01:28:31;;;;;;;22.80;15.07;;;;;;;6.96;100.00;99422.41;5003740;28;20197;-71
2021/11/01 01:31:01;;;;;;;21.87;14.27;;;;;;;6.91;100.00;99424.34;5004296;28;20204;-71
2021/11/01 01:33:27;;;;;;;21.73;14.77;;;;;;;6.89;100.00;99420.91;5005340;28;20670;-71
2021/11/01 01:35:56;;;;;;;21.50;14.30;;;;;;;6.85;100.00;99415.88;5004617;28;20197;-71
2021/11/01 01:38:22;;;;;;;21.70;14.87;;;;;;;6.81;100.00;99410.78;5004545;28;20271;-71
2021/11/01 01:40:49;;;;;;;23.03;15.57;;;;;;;6.78;100.00;99410.03;5004193;28;20206;-71
2021/11/01 01:43:15;;;;;;;23.07;15.70;;;;;;;6.70;100.00;99407.69;5002916;28;20324;-70
2021/11/01 01:45:42;;;;;;;23.17;14.67;;;;;;;6.67;100.00;99400.00;5005487;28;20224;-70
2021/11/01 01:48:10;;;;;;;25.07;15.70;;;;;;;6.68;100.00;99399.09;4999928;28;20677;-71
2021/11/01 01:50:37;;;;;;;25.13;16.33;;;;;;;6.66;100.00;99390.50;5000872;28;20219;-72
2021/11/01 01:53:04;;;;;;;24.47;16.17;;;;;;;6.77;100.00;99387.59;5001320;28;20224;-71
2021/11/01 01:55:31;;;;;;;23.93;16.13;;;;;;;6.78;100.00;99379.78;5004560;28;20231;-71
2021/11/01 01:57:58;;;;;;;24.53;17.20;;;;;;;6.76;100.00;99375.56;5002824;28;20709;-70
2021/11/01 02:00:42;;;;;;;26.30;17.67;;;;;;;6.72;100.00;99379.97;5001602;28;20690;-71
2021/11/01 02:03:11;;;;;;;25.63;17.00;;;;;;;6.73;100.00;99373.91;5004139;28;20603;-71
2021/11/01 02:05:43;;;;;;;26.30;16.40;;;;;;;6.72;100.00;99368.75;5005414;28;20212;-72
2021/11/01 02:08:13;;;;;;;24.97;16.27;;;;;;;6.73;100.00;99375.66;5003862;28;20254;-71
2021/11/01 02:10:46;;;;;;;25.90;16.60;;;;;;;6.74;100.00;99365.25;5007631;28;20224;-71
2021/11/01 02:13:16;;;;;;;26.57;18.13;;;;;;;6.76;100.00;99370.38;5003118;28;20232;-71
2021/11/01 02:15:48;;;;;;;24.40;16.50;;;;;;;6.76;100.00;99367.78;5001368;28;20211;-70
2021/11/01 02:18:17;;;;;;;24.03;15.80;;;;;;;6.73;100.00;99360.09;4998912;28;20207;-70
2021/11/01 02:20:53;;;;;;;24.90;16.63;;;;;;;6.73;100.00;99360.09;4999234;28;20215;-71
2021/11/01 02:23:26;;;;;;;22.43;16.03;;;;;;;6.77;100.00;99354.78;5005495;28;20228;-70
2021/11/01 02:25:55;;;;;;;28.17;16.83;;;;;;;6.79;100.00;99362.53;5003746;28;20208;-70
2021/11/01 02:28:25;;;;;;;24.90;17.60;;;;;;;6.80;100.00;99372.81;4999876;28;20574;-72
2021/11/01 02:30:53;;;;;;;27.17;16.83;;;;;;;6.79;100.00;99370.28;5001364;28;20228;-72
2021/11/01 02:33:23;;;;;;;26.73;16.97;;;;;;;6.77;100.00;99364.28;5003338;28;20228;-71
2021/11/01 02:35:50;;;;;;;24.03;16.07;;;;;;;6.81;100.00;99364.16;5003416;28;20299;-70
2021/11/01 02:38:20;;;;;;;26.47;17.57;;;;;;;6.81;100.00;99363.31;5008765;28;20216;-71
2021/11/01 02:40:46;;;;;;;24.77;17.30;;;;;;;6.79;100.00;99359.94;5004783;28;20586;-70
2021/11/01 02:46:43;;;;;;;22.13;16.10;;;;;;;6.75;100.00;99351.38;5007320;28;20185;-71
2021/11/01 02:49:09;;;;;;;24.93;16.40;;;;;;;6.75;100.00;99353.97;5008419;28;20228;-71
2021/11/01 02:51:36;;;;;;;26.83;16.97;;;;;;;6.73;100.00;99353.16;5005840;28;20930;-72
2021/11/01 02:54:04;;;;;;;27.00;17.97;;;;;;;6.75;100.00;99346.19;5006102;28;20518;-71
2021/11/01 02:56:31;;;;;;;26.53;16.33;;;;;;;6.76;100.00;99345.31;5009704;28;20858;-70
2021/11/01 02:58:57;;;;;;;30.70;17.77;;;;;;;6.75;100.00;99342.75;5005479;28;20215;-71
2021/11/01 03:01:25;;;;;;;24.87;17.27;;;;;;;6.76;100.00;99341.88;5006356;28;20227;-71
2021/11/01 03:03:54;;;;;;;24.67;16.63;;;;;;;6.74;100.00;99341.09;5006600;28;20205;-71
2021/11/01 03:06:22;;;;;;;26.60;16.27;;;;;;;6.71;100.00;99338.59;5007045;28;20215;-71
2021/11/01 03:08:50;;;;;;;24.17;16.23;;;;;;;6.70;100.00;99342.94;5002758;28;20229;-71
2021/11/01 03:11:17;;;;;;;24.20;16.67;;;;;;;6.68;100.00;99334.31;5008129;28;20592;-71
2021/11/01 03:13:44;;;;;;;23.43;16.70;;;;;;;6.67;100.00;99332.66;5003809;28;20215;-70
2021/11/01 03:16:11;;;;;;;23.97;16.50;;;;;;;6.66;100.00;99333.53;5006440;28;20267;-71
2021/11/01 03:18:46;;;;;;;25.03;17.27;;;;;;;6.67;100.00;99335.25;5006971;28;20841;-70
2021/11/01 03:21:17;;;;;;;26.63;17.03;;;;;;;6.64;100.00;99336.16;5002209;28;20205;-71
2021/11/01 03:23:47;;;;;;;24.53;16.07;;;;;;;6.63;100.00;99333.63;5007808;28;20573;-71
2021/11/01 03:26:18;;;;;;;25.53;17.23;;;;;;;6.59;100.00;99340.63;5009019;28;20208;-71
2021/11/01 03:28:48;;;;;;;23.83;16.57;;;;;;;6.58;100.00;99328.59;5008180;28;20227;-71
2021/11/01 03:31:16;;;;;;;26.30;16.20;;;;;;;6.58;100.00;99332.94;5002565;28;20223;-70
2021/11/01 03:33:43;;;;;;;26.20;17.60;;;;;;;6.55;100.00;99325.25;5005626;28;20729;-71
2021/11/01 03:36:11;;;;;;;26.83;17.13;;;;;;;6.54;100.00;99331.31;5004929;28;20208;-71
2021/11/01 03:38:40;;;;;;;27.10;16.83;;;;;;;6.52;100.00;99333.09;5010318;28;20693;-71
2021/11/01 03:41:09;;;;;;;23.43;16.43;;;;;;;6.51;100.00;99334.84;5007018;28;20630;-71
2021/11/01 03:43:39;;;;;;;25.60;16.77;;;;;;;6.49;100.00;99328.00;5007397;28;20283;-71
2021/11/01 03:46:08;;;;;;;27.33;17.67;;;;;;;6.50;100.00;99337.50;5005037;28;20232;-71
2021/11/01 03:48:37;;;;;;;25.80;17.63;;;;;;;6.50;100.00;99333.16;5009286;28;20306;-71
2021/11/01 03:51:08;;;;;;;27.17;17.00;;;;;;;6.50;100.00;99333.16;5002099;28;20214;-71
2021/11/01 03:53:36;;;;;;;25.27;17.83;;;;;;;6.50;100.00;99322.78;4998831;28;20803;-71
2021/11/01 03:56:05;;;;;;;27.63;18.37;;;;;;;6.54;100.00;99324.38;5021700;28;20291;-71
2021/11/01 03:58:32;;;;;;;25.20;17.30;;;;;;;6.54;100.00;99326.97;5005258;28;20200;-71
2021/11/01 04:00:59;;;;;;;24.20;16.77;;;;;;;6.50;100.00;99333.16;5003048;28;20818;-71
2021/11/01 04:03:27;;;;;;;25.37;16.93;;;;;;;6.50;100.00;99330.56;5003948;28;20217;-71
2021/11/01 04:05:58;;;;;;;28.50;17.67;;;;;;;6.52;100.00;99330.53;5004110;28;20300;-71
2021/11/01 04:08:25;;;;;;;27.10;17.40;;;;;;;6.48;100.00;99324.59;5008583;28;20291;-72
2021/11/01 04:10:51;;;;;;;27.37;17.50;;;;;;;6.47;100.00;99325.47;5005900;28;20209;-71
2021/11/01 04:13:19;;;;;;;24.03;16.50;;;;;;;6.44;100.00;99333.34;4999738;28;20225;-70
2021/11/01 04:15:51;;;;;;;27.00;17.60;;;;;;;6.44;100.00;99333.34;5005750;28;20212;-71
2021/11/01 04:18:25;;;;;;;25.43;17.93;;;;;;;6.42;100.00;99335.97;5003088;28;20206;-71
2021/11/01 04:20:53;;;;;;;24.90;16.93;;;;;;;6.40;100.00;99326.53;5007709;28;20237;-71
2021/11/01 04:23:23;;;;;;;30.67;17.67;;;;;;;6.39;100.00;99324.88;5001608;28;20226;-71
2021/11/01 04:25:49;;;;;;;26.90;16.40;;;;;;;6.37;100.00;99334.44;5007100;28;20204;-71
2021/11/01 04:28:16;;;;;;;25.13;17.80;;;;;;;6.31;100.00;99330.25;5005114;28;20208;-71
2021/11/01 04:30:49;;;;;;;27.37;18.17;;;;;;;6.32;100.00;99325.94;5009035;28;20231;-71
2021/11/01 04:33:19;;;;;;;30.57;16.90;;;;;;;6.34;100.00;99326.75;5004460;28;20216;-71
2021/11/01 04:35:46;;;;;;;27.83;18.17;;;;;;;6.38;100.00;99324.00;5001842;28;20239;-71
2021/11/01 04:38:21;;;;;;;28.40;19.13;;;;;;;6.47;100.00;99314.28;5002179;28;21807;-71
2021/11/01 04:41:03;;;;;;;31.80;18.53;;;;;;;6.44;100.00;99313.47;4998870;28;20216;-71
2021/11/01 04:44:05;;;;;;;26.03;18.57;;;;;;;6.48;100.00;99316.81;5010531;28;20200;-70
2021/11/01 04:55:01;;;;;;;28.57;18.17;;;;;;;6.57;100.00;99326.06;4936439;29;20210;-71
2021/11/01 04:57:27;;;;;;;30.97;19.20;;;;;;;6.55;100.00;99328.69;4941730;29;20241;-70
2021/11/01 04:59:54;;;;;;;30.40;18.77;;;;;;;6.54;100.00;99333.91;4968350;28;20303;-71
2021/11/01 05:02:23;;;;;;;27.37;18.63;;;;;;;6.55;100.00;99326.09;5005740;28;20230;-71
2021/11/01 05:04:50;;;;;;;28.07;18.23;;;;;;;6.56;100.00;99330.41;5000678;28;20259;-71
2021/11/01 05:07:17;;;;;;;29.47;18.90;;;;;;;6.57;100.00;99329.47;5004168;28;20200;-71
2021/11/01 05:09:47;;;;;;;26.80;18.03;;;;;;;6.55;100.00;99328.69;5003932;28;20219;-71
2021/11/01 05:12:24;;;;;;;27.13;17.80;;;;;;;6.54;100.00;99326.97;5006127;28;20255;-70
2021/11/01 05:14:57;;;;;;;28.13;18.30;;;;;;;6.62;100.00;99332.78;5000348;28;20289;-71
2021/11/01 05:17:34;;;;;;;26.67;17.67;;;;;;;6.62;100.00;99329.34;5002829;28;20835;-71
2021/11/01 05:20:06;;;;;;;27.10;18.87;;;;;;;6.66;100.00;99327.50;5001000;28;20208;-72
2021/11/01 05:22:36;;;;;;;29.23;20.07;;;;;;;6.75;100.00;99333.25;5004247;28;20586;-71
2021/11/01 05:25:06;;;;;;;27.70;18.80;;;;;;;6.74;100.00;99335.91;5001595;28;20271;-71
2021/11/01 05:27:45;;;;;;;33.67;20.23;;;;;;;6.70;100.00;99329.09;5004572;28;20291;-71
2021/11/01 05:30:15;;;;;;;32.90;21.33;;;;;;;6.67;100.00;99337.84;5003734;28;20427;-71
2021/11/01 05:32:53;;;;;;;28.53;20.57;;;;;;;6.63;100.00;99338.81;4997867;28;20625;-71
2021/11/01 05:35:20;;;;;;;27.80;19.23;;;;;;;6.64;100.00;99341.34;5002110;28;20208;-71
2021/11/01 05:37:47;;;;;;;27.23;17.67;;;;;;;6.61;100.00;99345.78;4997579;28;20674;-72
2021/11/01 05:40:14;;;;;;;27.37;19.13;;;;;;;6.68;100.00;99347.28;4995963;28;20914;-70
2021/11/01 05:42:40;;;;;;;32.23;19.43;;;;;;;6.74;100.00;99341.09;4997958;28;20235;-71
2021/11/01 05:45:08;;;;;;;30.17;20.43;;;;;;;6.84;100.00;99347.66;5005130;28;20200;-70
2021/11/01 05:47:34;;;;;;;39.23;22.70;;;;;;;6.88;100.00;99346.69;5017200;28;20682;-70
2021/11/01 05:50:03;;;;;;;47.40;24.77;;;;;;;6.87;100.00;99351.91;5000575;28;20207;-70
2021/11/01 05:52:31;;;;;;;75.27;33.93;;;;;;;6.86;100.00;99348.47;5000142;28;20583;-70
2021/11/01 05:55:05;;;;;;;60.77;31.33;;;;;;;6.85;100.00;99353.69;5006197;28;20232;-70
2021/11/01 05:57:43;;;;;;;64.33;32.33;;;;;;;6.81;100.00;99355.53;5001794;28;20208;-70
2021/11/01 06:00:19;;;;;;;51.87;27.37;;;;;;;6.80;100.00;99359.84;5003484;28;20291;-69
2021/11/01 06:02:50;;;;;;;57.57;28.63;;;;;;;6.74;100.00;99352.28;5000569;28;20234;-69
2021/11/01 06:13:24;;;;;;;40.67;23.23;;;;;;;6.60;100.00;99350.13;4994548;28;20221;-73
2021/11/01 06:13:40;;;;;;;32.43;19.77;;;;;;;6.58;100.00;99357.09;5002035;28;20267;-69
2021/11/01 06:16:06;;;;;;;32.23;20.43;;;;;;;6.55;100.00;99362.34;5001929;28;20681;-70
2021/11/01 06:18:36;;;;;;;30.63;20.03;;;;;;;6.54;100.00;99367.56;5006285;28;20702;-70
2021/11/01 06:21:05;;;;;;;33.73;19.80;;;;;;;6.52;100.00;99370.19;4997306;28;20240;-70
2021/11/01 06:23:33;;;;;;;27.83;18.43;;;;;;;6.55;100.00;99375.28;5002409;28;20212;-72
2021/11/01 06:26:00;;;;;;;34.40;20.87;;;;;;;6.59;100.00;99376.91;5002554;28;20216;-70
2021/11/01 06:28:26;;;;;;;30.50;20.03;;;;;;;6.62;100.00;99379.41;4998062;28;20318;-70
2021/11/01 06:30:56;;;;;;;32.87;19.03;;;;;;;6.70;100.00;99378.31;5001586;28;20229;-69
2021/11/01 06:33:44;;;;;;;30.40;20.17;;;;;;;6.67;100.00;99384.47;5000838;28;20267;-69
2021/11/01 06:44:50;;;;;;;30.83;18.93;;;;;;;6.80;100.00;99393.53;5004307;28;20209;-69
2021/11/01 06:50:07;;;;;;;28.93;18.60;;;;;;;6.86;100.00;99409.78;5001110;28;20208;-71
2021/11/01 06:52:59;;;;;;;35.03;21.27;;;;;;;6.92;100.00;99410.47;4999355;28;20307;-69
2021/11/01 06:58:25;;;;;;;43.77;25.77;;;;;;;7.00;100.00;99413.69;5001595;28;20208;-69
2021/11/01 07:14:43;;;;;;;32.70;20.53;;;;;;;7.73;100.00;99432.09;5008253;28;20211;-70
2021/11/01 07:17:14;;;;;;;31.97;21.27;;;;;;;7.99;100.00;99443.38;4998326;28;20319;-71
2021/11/01 07:20:00;;;;;;;29.10;20.67;;;;;;;8.11;100.00;99451.56;4999791;28;20216;-69
2021/11/01 08:20:32;;;;;;;22.03;15.70;;;;;;;11.14;91.08;99521.88;5076964;28;20943;-71
2021/11/01 08:20:49;;;;;;;24.67;15.83;;;;;;;11.25;91.14;99512.72;5081190;28;20194;-71
2021/11/01 08:23:32;;;;;;;24.67;16.07;;;;;;;11.23;89.32;99523.22;5076091;28;20251;-70
2021/11/01 08:40:19;;;;;;;21.87;15.27;;;;;;;11.04;90.04;99536.25;5058334;28;20552;-69
2021/11/01 08:43:11;;;;;;;19.73;15.27;;;;;;;11.05;90.45;99534.53;5062251;28;20278;-70
2021/11/01 08:46:06;;;;;;;21.27;15.10;;;;;;;11.05;90.56;99532.75;5061808;28;20223;-71
2021/11/01 08:48:55;;;;;;;24.60;14.93;;;;;;;11.04;90.95;99536.25;5069088;28;20201;-71
2021/11/01 08:51:37;;;;;;;22.00;15.40;;;;;;;11.07;90.75;99540.50;5059562;28;20231;-71
2021/11/01 09:05:41;;;;;;;21.57;14.73;;;;;;;11.08;90.32;99566.53;5058604;28;20226;-71
2021/11/01 09:24:51;;;;;;;17.43;14.20;;;;;;;11.15;90.98;99578.38;5080152;27;20613;-72
2021/11/01 09:27:20;;;;;;;19.40;14.30;;;;;;;11.17;90.80;99578.31;5081728;28;20220;-71
2021/11/01 09:30:03;;;;;;;20.47;13.90;;;;;;;11.18;91.45;99574.78;5075271;28;20250;-71
2021/11/01 09:38:29;;;;;;;19.10;14.60;;;;;;;11.27;91.91;99576.13;5015880;28;20242;-72
2021/11/01 09:41:04;;;;;;;21.43;14.20;;;;;;;11.31;91.73;99583.75;5044391;28;20314;-72
2021/11/01 09:43:31;;;;;;;19.33;13.83;;;;;;;11.37;90.64;99583.44;5075423;28;20311;-71
2021/11/01 09:45:59;;;;;;;18.63;13.70;;;;;;;11.46;91.84;99581.34;5072581;28;20211;-72
2021/11/01 09:48:26;;;;;;;19.67;14.17;;;;;;;11.55;90.98;99583.50;5075059;28;20201;-71
2021/11/01 09:50:53;;;;;;;18.43;13.30;;;;;;;11.62;91.12;99590.13;5071719;28;20257;-70
2021/11/01 09:53:24;;;;;;;20.70;13.27;;;;;;;11.69;90.33;99588.94;5074281;28;20234;-72
2021/11/01 09:55:56;;;;;;;17.33;12.77;;;;;;;11.74;91.30;99588.72;5074078;28;20215;-71
2021/11/01 10:01:10;;;;;;;17.70;12.67;;;;;;;11.79;91.22;99583.28;5072512;28;20213;-70
2021/11/01 10:03:39;;;;;;;15.60;11.83;;;;;;;11.82;91.16;99586.59;5079306;28;20218;-72
2021/11/01 10:06:07;;;;;;;16.13;12.03;;;;;;;11.90;91.36;99589.72;5075739;28;20575;-72
2021/11/01 10:08:33;;;;;;;16.33;11.87;;;;;;;11.98;90.60;99588.50;5080664;28;20286;-72
2021/11/01 10:11:01;;;;;;;14.77;12.07;;;;;;;12.06;90.83;99592.44;5068967;28;20202;-71
2021/11/01 10:13:30;;;;;;;21.13;13.87;;;;;;;12.10;89.19;99595.72;5074117;28;20202;-72
2021/11/01 10:18:46;;;;;;;17.60;11.70;;;;;;;12.08;90.09;99590.59;5076214;28;20224;-71
2021/11/01 10:21:14;;;;;;;15.73;12.00;;;;;;;12.02;90.45;99587.44;5071271;28;21142;-72
2021/11/01 10:23:49;;;;;;;15.63;11.47;;;;;;;12.00;91.54;99590.13;5076370;28;20745;-71
2021/11/01 10:26:19;;;;;;;15.83;11.53;;;;;;;11.97;93.09;99584.19;5069957;28;20199;-72
2021/11/01 10:28:48;;;;;;;17.10;11.80;;;;;;;11.94;93.05;99590.41;5066862;28;20209;-71
2021/11/01 10:31:19;;;;;;;15.57;12.10;;;;;;;11.90;93.39;99591.44;5076358;28;20200;-71
2021/11/01 10:33:47;;;;;;;17.20;11.83;;;;;;;11.89;94.76;99584.53;5072673;28;20209;-72
2021/11/01 10:36:26;;;;;;;14.73;11.53;;;;;;;11.86;95.41;99588.13;5055518;28;20207;-72
2021/11/01 10:38:57;;;;;;;15.47;11.23;;;;;;;11.87;95.53;99576.78;5057572;28;20221;-71
2021/11/01 10:41:29;;;;;;;16.17;11.33;;;;;;;11.90;96.00;99567.94;5059760;28;20219;-71
2021/11/01 10:44:12;;;;;;;15.27;11.10;;;;;;;11.92;94.22;99579.19;5058710;28;20316;-71
2021/11/01 11:11:41;;;;;;;13.70;10.87;;;;;;;12.17;92.36;99589.31;5059459;28;20226;-72
2021/11/01 11:14:25;;;;;;;14.17;9.93;;;;;;;12.15;91.76;99585.06;5058698;28;20199;-71
2021/11/01 11:17:14;;;;;;;15.57;10.33;;;;;;;12.09;91.63;99583.59;5056910;28;20237;-72
2021/11/01 11:20:06;;;;;;;13.73;9.90;;;;;;;12.05;91.65;99582.91;5056888;28;20238;-72
2021/11/01 11:28:39;;;;;;;14.87;10.00;;;;;;;12.03;93.87;99584.75;5063706;28;20282;-72
2021/11/01 11:31:23;;;;;;;14.10;10.83;;;;;;;12.06;93.13;99583.75;5057775;28;20198;-72
2021/11/01 11:39:33;;;;;;;14.77;11.07;;;;;;;12.12;93.21;99599.97;5059299;28;20211;-72
2021/11/01 11:47:47;;;;;;;16.13;11.53;;;;;;;12.07;94.12;99615.03;5057535;28;20214;-72
2021/11/01 11:50:18;;;;;;;14.73;11.47;;;;;;;12.08;94.12;99616.72;5058892;28;20690;-72
2021/11/01 11:52:45;;;;;;;17.60;11.83;;;;;;;12.13;96.37;99616.50;5059197;28;20589;-71
2021/11/01 11:55:17;;;;;;;18.03;11.77;;;;;;;12.13;99.77;99609.50;5060137;28;20198;-71
2021/11/01 11:57:44;;;;;;;16.83;12.33;;;;;;;12.08;100.00;99605.41;5061549;28;20216;-70
2021/11/01 12:00:17;;;;;;;17.00;12.57;;;;;;;12.10;100.00;99600.97;5057406;28;20293;-71
2021/11/01 12:02:46;;;;;;;17.03;12.63;;;;;;;12.10;100.00;99600.97;5057036;28;20226;-72
2021/11/01 12:05:20;;;;;;;19.07;13.57;;;;;;;12.12;100.00;99601.75;5060438;28;21221;-72
2021/11/01 12:07:59;;;;;;;21.80;14.53;;;;;;;12.12;100.00;99597.38;5058223;28;20750;-71
2021/11/01 12:10:54;;;;;;;21.10;14.10;;;;;;;12.07;100.00;99601.13;5074579;28;20209;-72
2021/11/01 12:13:51;;;;;;;23.97;14.70;;;;;;;12.06;100.00;99595.03;5056125;28;20225;-71
2021/11/01 12:19:05;;;;;;;23.00;15.73;;;;;;;12.08;100.00;99597.56;5057555;28;20221;-71
2021/11/01 12:21:35;;;;;;;20.33;14.30;;;;;;;12.10;100.00;99600.97;5056733;28;20222;-72
2021/11/01 12:24:02;;;;;;;20.70;14.80;;;;;;;12.05;100.00;99589.91;5058830;28;20237;-71
2021/11/01 12:26:28;;;;;;;20.23;15.77;;;;;;;12.02;100.00;99603.13;5058275;28;20560;-72
2021/11/01 12:28:59;;;;;;;19.73;14.23;;;;;;;11.95;100.00;99592.09;5055878;28;20211;-72
2021/11/01 12:31:27;;;;;;;22.20;16.13;;;;;;;11.90;100.00;99596.69;5059592;28;20258;-71
2021/11/01 12:33:59;;;;;;;23.40;15.73;;;;;;;11.80;100.00;99604.09;5059007;28;20259;-71
2021/11/01 12:36:30;;;;;;;24.43;17.13;;;;;;;11.79;100.00;99593.75;5055817;28;20210;-71
2021/11/01 12:39:08;;;;;;;39.23;26.77;;;;;;;11.79;100.00;99594.56;5055032;28;20228;-72
2021/11/01 12:41:45;;;;;;;28.67;21.47;;;;;;;11.75;100.00;99582.59;5053597;28;20230;-71
2021/11/01 12:56:57;;;;;;;27.07;17.90;;;;;;;11.67;100.00;99587.31;5051393;28;20221;-72
2021/11/01 12:58:21;;;;;;;23.70;18.47;;;;;;;11.55;100.00;99584.34;5056884;28;20632;-72
2021/11/01 13:00:48;;;;;;;23.73;18.20;;;;;;;11.54;100.00;99589.69;5057609;28;20213;-72
2021/11/01 13:03:17;;;;;;;25.03;18.73;;;;;;;11.49;100.00;99584.66;5059663;28;20604;-72
2021/11/01 13:05:49;;;;;;;25.73;17.97;;;;;;;11.46;100.00;99579.56;5057430;28;20213;-71
2021/11/01 13:08:20;;;;;;;32.33;26.63;;;;;;;11.40;100.00;99582.47;5058341;28;20313;-71
2021/11/01 13:10:56;;;;;;;23.23;16.63;;;;;;;11.37;100.00;99580.84;5058768;28;20288;-72
2021/11/01 13:13:43;;;;;;;26.47;18.63;;;;;;;11.32;100.00;99580.19;5054384;28;20683;-71
2021/11/01 13:19:07;;;;;;;25.27;17.43;;;;;;;11.32;100.00;99571.53;5054070;28;20209;-72
2021/11/01 13:21:41;;;;;;;24.50;17.70;;;;;;;11.27;100.00;99568.28;5053594;28;20304;-72
2021/11/01 13:24:10;;;;;;;25.43;17.30;;;;;;;11.20;100.00;99566.88;5054940;28;20616;-70
2021/11/01 13:26:55;;;;;;;23.60;15.50;;;;;;;11.17;100.00;99573.94;5048753;28;20230;-72
2021/11/01 13:35:01;;;;;;;25.37;17.83;;;;;;;11.09;100.00;99569.97;5058426;28;20202;-71
2021/11/01 13:37:30;;;;;;;27.80;18.90;;;;;;;11.07;100.00;99567.44;5056323;28;20265;-71
2021/11/01 13:40:03;;;;;;;27.00;17.50;;;;;;;11.06;100.00;99564.88;5055477;28;20233;-71
2021/11/01 13:42:31;;;;;;;29.20;19.50;;;;;;;11.02;100.00;99563.34;5058778;28;20228;-71
2021/11/01 13:45:09;;;;;;;30.60;18.70;;;;;;;10.98;100.00;99568.69;5054322;28;20230;-71
2021/11/01 13:47:47;;;;;;;27.83;18.10;;;;;;;10.92;100.00;99562.91;5053737;28;20275;-69
2021/11/01 13:50:16;;;;;;;29.00;18.30;;;;;;;10.89;100.00;99561.28;5060313;28;20234;-71
2021/11/01 13:52:45;;;;;;;33.93;20.33;;;;;;;10.89;100.00;99568.28;5057178;28;20582;-71
2021/11/01 13:55:21;;;;;;;32.47;20.57;;;;;;;10.85;100.00;99564.09;5057412;28;20197;-70
2021/11/01 13:57:53;;;;;;;27.00;17.37;;;;;;;10.80;100.00;99565.13;5053932;28;20605;-70
2021/11/01 14:14:10;;;;;;;32.20;18.60;;;;;;;10.61;100.00;99566.84;5059940;28;20211;-70
2021/11/01 14:16:42;;;;;;;29.43;19.27;;;;;;;10.59;100.00;99566.09;5058778;28;20205;-69
2021/11/01 14:19:24;;;;;;;33.03;19.83;;;;;;;10.57;100.00;99563.53;5057393;28;20210;-70
2021/11/01 14:27:35;;;;;;;30.27;19.23;;;;;;;10.53;100.00;99571.53;5061040;28;20199;-69
2021/11/01 14:33:12;;;;;;;37.27;20.77;;;;;;;10.53;100.00;99574.97;5058037;28;20323;-70
2021/11/01 14:36:15;;;;;;;32.57;19.53;;;;;;;10.52;100.00;99573.31;5061112;28;20200;-70
2021/11/01 15:06:54;;;;;;;34.20;21.00;;;;;;;10.28;100.00;99593.38;5026663;28;20883;-70
2021/11/01 15:09:49;;;;;;;30.27;20.03;;;;;;;10.26;100.00;99599.59;5058951;28;20283;-69
2021/11/01 15:15:13;;;;;;;37.53;23.60;;;;;;;10.19;100.00;99592.00;5059553;28;20206;-71
2021/11/01 15:17:53;;;;;;;43.00;26.97;;;;;;;10.15;100.00;99593.06;5060614;28;20283;-69
2021/11/01 15:20:30;;;;;;;39.63;24.80;;;;;;;10.13;100.00;99596.59;5056317;28;20210;-70
2021/11/01 15:25:59;;;;;;;37.97;24.67;;;;;;;10.08;100.00;99603.75;5059530;28;20227;-71
2021/11/01 15:42:48;;;;;;;36.33;23.03;;;;;;;9.88;100.00;99595.00;5052665;28;20256;-70
2021/11/01 16:16:08;;;;;;;41.27;26.37;;;;;;;9.57;100.00;99601.41;5059638;28;20210;-70
2021/11/01 16:18:37;;;;;;;39.27;25.03;;;;;;;9.57;100.00;99608.34;5057765;28;20251;-70
2021/11/01 16:21:04;;;;;;;42.40;26.13;;;;;;;9.55;100.00;99611.03;5053169;28;20198;-69
2021/11/01 16:23:35;;;;;;;39.13;24.83;;;;;;;9.55;100.00;99607.56;5053719;28;20210;-70
2021/11/01 16:26:12;;;;;;;43.13;26.13;;;;;;;9.52;100.00;99605.94;5051860;28;20226;-71
2021/11/01 16:28:38;;;;;;;41.17;25.90;;;;;;;9.51;100.00;99606.81;5055678;28;20223;-71
2021/11/01 16:31:23;;;;;;;41.03;25.80;;;;;;;9.49;100.00;99611.25;5058780;28;20213;-71
2021/11/01 16:33:55;;;;;;;51.23;29.07;;;;;;;9.47;100.00;99608.69;5054387;28;20221;-70
2021/11/01 16:36:31;;;;;;;50.70;28.57;;;;;;;9.46;100.00;99606.16;5054962;28;20207;-70
2021/11/01 16:38:59;;;;;;;48.47;28.07;;;;;;;9.46;100.00;99611.34;5052302;28;20199;-69
2021/11/01 16:41:27;;;;;;;52.97;29.93;;;;;;;9.44;100.00;99613.16;5050179;28;20231;-69
2021/11/01 16:43:54;;;;;;;44.63;26.83;;;;;;;9.39;100.00;99612.50;5050862;28;20222;-70
2021/11/01 16:46:21;;;;;;;39.53;24.80;;;;;;;9.38;100.00;99616.03;5057323;28;20217;-70
2021/11/01 16:48:47;;;;;;;32.73;21.83;;;;;;;9.36;100.00;99620.44;5058424;28;20210;-70
2021/11/01 16:51:14;;;;;;;34.77;20.67;;;;;;;9.32;100.00;99619.66;5051938;28;20203;-70
2021/11/01 16:53:44;;;;;;;31.73;20.90;;;;;;;9.32;100.00;99619.66;5058449;28;20236;-71
2021/11/01 16:56:28;;;;;;;32.07;18.93;;;;;;;9.29;100.00;99622.41;5055040;28;20776;-69